createdAt,value
2023-05-01T00:01:00.964Z,85.65
2023-05-01T00:03:51.645Z,85.47
2023-05-01T00:06:42.243Z,85.68
2023-05-01T00:09:33.456Z,85.97
2023-05-01T00:12:24.011Z,85.95
2023-05-01T00:15:14.306Z,85.87
2023-05-01T00:18:06.923Z,86.02
2023-05-01T00:20:57.251Z,85.82
2023-05-01T00:23:47.646Z,85.83
2023-05-01T00:26:38.135Z,86.06
2023-05-01T00:29:28.609Z,86.08
2023-05-01T00:32:18.820Z,86.10
2023-05-01T00:35:09.956Z,86.16
2023-05-01T00:38:00.285Z,86.39
2023-05-01T00:40:50.653Z,86.25
2023-05-01T00:43:41.007Z,86.12
2023-05-01T00:46:35.704Z,85.74
2023-05-01T00:49:26.265Z,85.72
2023-05-01T00:52:16.451Z,85.79
2023-05-01T00:55:07.285Z,85.72
2023-05-01T00:57:57.758Z,85.63
2023-05-01T01:00:48.131Z,85.51
2023-05-01T01:03:38.598Z,85.64
2023-05-01T01:06:34.759Z,85.57
2023-05-01T01:09:33.177Z,85.65
2023-05-01T01:12:26.932Z,85.83
2023-05-01T01:15:20.341Z,86.09
2023-05-01T01:18:16.695Z,86.06
2023-05-01T01:21:10.624Z,85.86
2023-05-01T01:24:17.601Z,85.78
2023-05-01T01:27:27.736Z,85.80
2023-05-01T01:30:30.987Z,85.85
2023-05-01T01:33:31.262Z,86.07
2023-05-01T01:36:24.869Z,86.39
2023-05-01T01:39:23.130Z,86.58
2023-05-01T01:42:19.565Z,86.49
2023-05-01T01:45:13.581Z,86.39
2023-05-01T01:48:04.474Z,86.66
2023-05-01T01:50:59.458Z,86.77
2023-05-01T01:53:51.381Z,86.58
2023-05-01T01:56:44.396Z,86.70
2023-05-01T01:59:35.708Z,86.82
2023-05-01T02:02:28.904Z,87.16
2023-05-01T02:05:20.757Z,87.03
2023-05-01T02:08:13.219Z,87.17
2023-05-01T02:11:04.344Z,87.24
2023-05-01T02:13:58.497Z,87.27
2023-05-01T02:16:50.010Z,87.45
2023-05-01T02:19:41.892Z,87.38
2023-05-01T02:22:32.474Z,87.25
2023-05-01T02:25:23.070Z,87.17
2023-05-01T02:28:14.405Z,87.19
2023-05-01T02:31:05.482Z,87.35
2023-05-01T02:33:58.375Z,87.27
2023-05-01T02:36:48.694Z,87.23
2023-05-01T02:39:39.333Z,87.40
2023-05-01T02:42:33.905Z,87.30
2023-05-01T02:45:25.250Z,87.23
2023-05-01T02:48:20.519Z,87.07
2023-05-01T02:51:11.439Z,87.15
2023-05-01T02:54:03.415Z,87.27
2023-05-01T02:56:54.669Z,87.43
2023-05-01T02:59:45.017Z,87.53
2023-05-01T03:02:35.293Z,87.68
2023-05-01T03:05:28.877Z,87.71
2023-05-01T03:08:19.167Z,87.58
2023-05-01T03:11:16.955Z,87.68
2023-05-01T03:14:07.577Z,87.64
2023-05-01T03:17:00.928Z,88.03
2023-05-01T03:19:51.759Z,87.91
2023-05-01T03:22:42.436Z,88.00
2023-05-01T03:25:35.921Z,88.10
2023-05-01T03:28:28.510Z,87.99
2023-05-01T03:31:18.833Z,87.90
2023-05-01T03:34:11.703Z,88.45
2023-05-01T03:37:02.502Z,88.49
2023-05-01T03:39:53.099Z,88.47
2023-05-01T03:43:03.713Z,88.24
2023-05-01T03:45:54.223Z,88.05
2023-05-01T03:48:48.411Z,87.97
2023-05-01T03:51:39.956Z,88.07
2023-05-01T03:54:30.230Z,88.00
2023-05-01T03:57:23.721Z,88.26
2023-05-01T04:00:15.650Z,88.43
2023-05-01T04:03:06.590Z,88.25
2023-05-01T04:05:58.414Z,88.31
2023-05-01T04:08:51.910Z,88.47
2023-05-01T04:11:42.250Z,88.47
2023-05-01T04:14:36.078Z,88.91
2023-05-01T04:17:26.715Z,89.07
2023-05-01T04:20:19.442Z,89.23
2023-05-01T04:23:12.929Z,89.23
2023-05-01T04:26:04.313Z,89.54
2023-05-01T04:28:54.542Z,89.59
2023-05-01T04:31:47.015Z,89.54
2023-05-01T04:34:37.511Z,89.36
2023-05-01T04:37:28.138Z,89.58
2023-05-01T04:40:18.833Z,89.89
2023-05-01T04:43:09.302Z,89.90
2023-05-01T04:46:00.055Z,90.14
2023-05-01T04:48:50.497Z,90.15
2023-05-01T04:51:40.731Z,89.98
2023-05-01T04:54:32.255Z,90.13
2023-05-01T04:57:22.535Z,90.37
2023-05-01T05:00:13.924Z,90.28
2023-05-01T05:03:10.371Z,90.25
2023-05-01T05:06:00.731Z,90.02
2023-05-01T05:08:52.289Z,90.19
2023-05-01T05:11:45.014Z,90.26
2023-05-01T05:14:43.433Z,90.23
2023-05-01T05:17:35.301Z,89.77
2023-05-01T05:20:29.398Z,90.01
2023-05-01T05:23:20.079Z,90.03
2023-05-01T05:26:12.624Z,89.77
2023-05-01T05:29:03.212Z,89.68
2023-05-01T05:31:59.825Z,89.58
2023-05-01T05:34:50.547Z,89.55
2023-05-01T05:37:41.024Z,89.64
2023-05-01T05:40:34.512Z,89.45
2023-05-01T05:43:27.353Z,89.31
2023-05-01T05:46:19.029Z,89.22
2023-05-01T05:49:09.757Z,89.73
2023-05-01T05:52:00.260Z,89.79
2023-05-01T05:54:50.623Z,89.49
2023-05-01T05:57:41.136Z,89.12
2023-05-01T06:00:32.081Z,88.77
2023-05-01T06:03:25.523Z,88.67
2023-05-01T06:06:17.071Z,88.34
2023-05-01T06:09:09.675Z,88.58
2023-05-01T06:12:03.742Z,88.30
2023-05-01T06:14:54.237Z,88.37
2023-05-01T06:17:44.962Z,88.76
2023-05-01T06:20:35.486Z,88.98
2023-05-01T06:23:28.918Z,89.10
2023-05-01T06:26:38.943Z,88.72
2023-05-01T06:29:29.200Z,88.59
2023-05-01T06:32:19.571Z,88.54
2023-05-01T06:35:11.559Z,88.74
2023-05-01T06:38:02.902Z,88.70
2023-05-01T06:40:53.358Z,88.99
2023-05-01T06:43:43.924Z,88.87
2023-05-01T06:46:34.887Z,88.64
2023-05-01T06:49:25.300Z,88.62
2023-05-01T06:52:15.636Z,88.38
2023-05-01T06:55:10.172Z,87.98
2023-05-01T06:58:12.555Z,87.83
2023-05-01T07:01:13.763Z,87.59
2023-05-01T07:04:04.373Z,87.15
2023-05-01T07:06:54.964Z,86.72
2023-05-01T07:09:50.842Z,86.36
2023-05-01T07:12:51.075Z,86.68
2023-05-01T07:15:41.217Z,86.56
2023-05-01T07:18:31.523Z,86.27
2023-05-01T07:21:21.810Z,85.97
2023-05-01T07:24:12.505Z,85.12
2023-05-01T07:27:02.849Z,84.67
2023-05-01T07:29:53.375Z,83.81
2023-05-01T07:32:43.768Z,82.84
2023-05-01T07:35:41.557Z,82.12
2023-05-01T07:38:31.770Z,81.17
2023-05-01T07:41:22.992Z,80.03
2023-05-01T07:44:13.412Z,78.61
2023-05-01T07:47:07.243Z,77.33
2023-05-01T07:49:58.079Z,76.55
2023-05-01T07:52:48.889Z,76.30
2023-05-01T07:55:39.641Z,75.73
2023-05-01T07:58:29.902Z,74.81
2023-05-01T08:01:21.193Z,74.42
2023-05-01T08:04:11.551Z,74.67
2023-05-01T08:07:01.887Z,74.67
2023-05-01T08:09:52.613Z,74.43
2023-05-01T08:12:46.231Z,74.49
2023-05-01T08:15:39.277Z,73.85
2023-05-01T08:18:29.705Z,72.82
2023-05-01T08:21:21.254Z,70.47
2023-05-01T08:24:12.133Z,68.21
2023-05-01T08:27:02.708Z,66.39
2023-05-01T08:29:52.993Z,66.75
2023-05-01T08:32:43.481Z,66.35
2023-05-01T08:35:33.788Z,65.35
2023-05-01T08:38:24.190Z,63.86
2023-05-01T08:41:17.527Z,62.25
2023-05-01T08:44:10.033Z,59.94
2023-05-01T08:47:08.429Z,58.35
2023-05-01T08:49:59.071Z,58.07
2023-05-01T08:52:52.083Z,59.19
2023-05-01T08:55:45.314Z,59.51
2023-05-01T08:58:36.729Z,59.35
2023-05-01T09:01:27.052Z,59.61
2023-05-01T09:04:17.729Z,60.67
2023-05-01T09:07:08.022Z,60.11
2023-05-01T09:09:59.146Z,59.18
2023-05-01T09:12:51.870Z,58.69
2023-05-01T09:15:42.664Z,56.53
2023-05-01T09:18:33.078Z,57.14
2023-05-01T09:21:24.780Z,56.36
2023-05-01T09:24:15.205Z,56.53
2023-05-01T09:27:05.492Z,55.56
2023-05-01T09:29:56.105Z,55.32
2023-05-01T09:32:46.842Z,55.98
2023-05-01T09:35:51.664Z,56.74
2023-05-01T09:38:45.273Z,57.12
2023-05-01T09:41:36.741Z,54.93
2023-05-01T09:44:27.319Z,51.75
2023-05-01T09:47:23.792Z,51.61
2023-05-01T09:50:29.895Z,51.01
2023-05-01T09:53:20.730Z,50.46
2023-05-01T09:56:11.022Z,49.32
2023-05-01T09:59:15.523Z,49.63
2023-05-01T10:02:05.911Z,46.86
2023-05-01T10:04:59.490Z,46.13
2023-05-01T10:08:00.474Z,44.97
2023-05-01T10:11:04.633Z,44.27
2023-05-01T10:14:11.203Z,44.68
2023-05-01T10:17:02.748Z,45.31
2023-05-01T10:19:53.261Z,43.25
2023-05-01T10:22:44.594Z,41.62
2023-05-01T10:25:35.134Z,40.66
2023-05-01T10:28:28.855Z,39.39
2023-05-01T10:31:21.582Z,36.85
2023-05-01T10:34:12.650Z,34.00
2023-05-01T10:37:05.896Z,33.80
2023-05-01T10:39:56.076Z,34.01
2023-05-01T10:42:59.640Z,33.22
2023-05-01T10:45:50.166Z,32.69
2023-05-01T10:48:56.408Z,33.54
2023-05-01T10:52:03.802Z,33.24
2023-05-01T10:54:54.411Z,33.80
2023-05-01T10:57:46.351Z,34.25
2023-05-01T11:00:37.018Z,32.96
2023-05-01T11:03:40.706Z,32.45
2023-05-01T11:06:31.351Z,33.57
2023-05-01T11:09:41.454Z,34.70
2023-05-01T11:12:52.480Z,33.50
2023-05-01T11:15:42.812Z,32.87
2023-05-01T11:21:39.155Z,34.58
2023-05-01T11:24:36.062Z,36.02
2023-05-01T11:27:27.621Z,37.51
2023-05-01T11:30:18.446Z,38.12
2023-05-01T11:33:12.689Z,37.36
2023-05-01T11:36:05.135Z,37.39
2023-05-01T11:38:56.885Z,38.36
2023-05-01T11:41:48.027Z,39.17
2023-05-01T11:44:38.682Z,39.50
2023-05-01T11:47:33.553Z,40.32
2023-05-01T11:50:24.333Z,41.29
2023-05-01T11:53:16.148Z,42.05
2023-05-01T11:56:26.568Z,42.23
2023-05-01T12:00:13.808Z,42.46
2023-05-01T12:02:41.684Z,43.06
2023-05-01T12:05:39.740Z,43.00
2023-05-01T12:08:29.949Z,42.52
2023-05-01T12:11:21.766Z,41.00
2023-05-01T12:14:12.529Z,40.23
2023-05-01T12:17:04.381Z,39.67
2023-05-01T12:19:57.130Z,39.87
2023-05-01T12:22:54.392Z,40.19
2023-05-01T12:25:45.638Z,40.57
2023-05-01T12:28:36.213Z,40.42
2023-05-01T12:31:27.573Z,40.45
2023-05-01T12:34:18.045Z,40.79
2023-05-01T12:37:08.550Z,40.54
2023-05-01T12:40:02.576Z,40.83
2023-05-01T12:42:58.570Z,41.43
2023-05-01T12:45:52.549Z,42.02
2023-05-01T12:48:43.735Z,42.61
2023-05-01T12:51:34.436Z,43.09
2023-05-01T12:54:26.225Z,43.52
2023-05-01T12:57:18.233Z,43.85
2023-05-01T13:00:10.886Z,44.26
2023-05-01T13:03:06.371Z,44.91
2023-05-01T13:05:58.475Z,45.34
2023-05-01T13:08:49.389Z,45.44
2023-05-01T13:11:40.648Z,45.59
2023-05-01T13:14:32.200Z,45.71
2023-05-01T13:17:27.036Z,45.02
2023-05-01T13:20:26.609Z,44.50
2023-05-01T13:23:17.308Z,43.97
2023-05-01T13:26:09.408Z,42.50
2023-05-01T13:29:00.203Z,41.38
2023-05-01T13:31:50.873Z,40.99
2023-05-01T13:34:43.704Z,39.87
2023-05-01T13:37:34.507Z,39.38
2023-05-01T13:40:25.973Z,39.15
2023-05-01T13:43:17.271Z,39.09
2023-05-01T13:46:08.047Z,38.18
2023-05-01T13:48:59.348Z,37.79
2023-05-01T13:51:49.958Z,36.29
2023-05-01T13:54:40.905Z,35.34
2023-05-01T13:57:32.365Z,35.57
2023-05-01T14:00:23.526Z,35.43
2023-05-01T14:03:16.603Z,36.24
2023-05-01T14:06:10.119Z,35.56
2023-05-01T14:09:01.440Z,35.87
2023-05-01T14:11:52.239Z,35.16
2023-05-01T14:14:47.427Z,33.96
2023-05-01T14:17:38.096Z,33.28
2023-05-01T14:20:28.701Z,32.51
2023-05-01T14:23:20.928Z,31.93
2023-05-01T14:26:11.512Z,32.47
2023-05-01T14:29:02.356Z,32.53
2023-05-01T14:31:54.834Z,32.71
2023-05-01T14:34:46.208Z,33.44
2023-05-01T14:37:37.646Z,34.39
2023-05-01T14:40:31.112Z,35.20
2023-05-01T14:43:22.519Z,35.73
2023-05-01T14:46:14.999Z,36.23
2023-05-01T14:49:05.453Z,36.97
2023-05-01T14:51:56.038Z,37.04
2023-05-01T14:55:02.947Z,37.13
2023-05-01T14:57:53.517Z,37.73
2023-05-01T15:00:44.558Z,37.92
2023-05-01T15:03:36.437Z,38.10
2023-05-01T15:06:28.884Z,38.26
2023-05-01T15:09:19.465Z,38.84
2023-05-01T15:12:10.935Z,38.97
2023-05-01T15:15:01.495Z,39.20
2023-05-01T15:17:54.572Z,39.12
2023-05-01T15:20:46.281Z,39.23
2023-05-01T15:23:37.438Z,39.63
2023-05-01T15:26:28.589Z,39.69
2023-05-01T15:29:19.654Z,40.11
2023-05-01T15:32:13.584Z,40.22
2023-05-01T15:35:04.630Z,40.65
2023-05-01T15:37:56.948Z,40.99
2023-05-01T15:40:47.564Z,41.33
2023-05-01T15:43:38.227Z,41.42
2023-05-01T15:46:28.948Z,41.73
2023-05-01T15:49:19.623Z,42.09
2023-05-01T15:52:10.128Z,41.78
2023-05-01T15:55:01.394Z,41.64
2023-05-01T15:57:52.602Z,41.48
2023-05-01T16:00:43.841Z,41.36
2023-05-01T16:03:35.140Z,41.71
2023-05-01T16:06:26.330Z,41.88
2023-05-01T16:09:16.919Z,42.31
2023-05-01T16:12:08.450Z,42.68
2023-05-01T16:14:59.159Z,42.82
2023-05-01T16:17:51.839Z,42.87
2023-05-01T16:20:43.172Z,42.50
2023-05-01T16:23:33.774Z,42.70
2023-05-01T16:26:28.539Z,43.29
2023-05-01T16:29:19.755Z,43.55
2023-05-01T16:32:11.686Z,43.71
2023-05-01T16:35:03.747Z,44.14
2023-05-01T16:37:54.202Z,44.29
2023-05-01T16:40:46.023Z,44.19
2023-05-01T16:43:36.677Z,44.13
2023-05-01T16:46:27.934Z,44.59
2023-05-01T16:49:18.908Z,44.66
2023-05-01T16:52:13.970Z,44.54
2023-05-01T16:55:04.342Z,44.71
2023-05-01T16:57:55.499Z,45.26
2023-05-01T17:00:46.114Z,45.76
2023-05-01T17:03:37.325Z,45.88
2023-05-01T17:06:28.023Z,46.30
2023-05-01T17:09:18.540Z,46.85
2023-05-01T17:12:17.995Z,47.19
2023-05-01T17:15:10.207Z,47.41
2023-05-01T17:18:00.910Z,47.52
2023-05-01T17:20:52.970Z,47.59
2023-05-01T17:23:43.478Z,47.90
2023-05-01T17:26:34.486Z,47.75
2023-05-01T17:29:25.189Z,48.02
2023-05-01T17:32:26.121Z,48.30
2023-05-01T17:35:27.795Z,48.60
2023-05-01T17:38:18.774Z,48.72
2023-05-01T17:41:09.527Z,48.84
2023-05-01T17:44:00.127Z,49.31
2023-05-01T17:46:51.121Z,50.47
2023-05-01T17:49:41.583Z,51.26
2023-05-01T17:52:32.303Z,51.99
2023-05-01T17:55:23.042Z,52.45
2023-05-01T17:58:13.866Z,52.99
2023-05-01T18:01:04.945Z,53.57
2023-05-01T18:03:56.014Z,53.94
2023-05-01T18:06:49.226Z,54.37
2023-05-01T18:09:43.092Z,54.84
2023-05-01T18:12:33.911Z,55.40
2023-05-01T18:15:24.668Z,55.76
2023-05-01T18:18:16.412Z,56.06
2023-05-01T18:21:07.174Z,56.34
2023-05-01T18:23:57.812Z,56.66
2023-05-01T18:26:49.344Z,56.88
2023-05-01T18:29:40.070Z,57.39
2023-05-01T18:32:46.228Z,57.72
2023-05-01T18:35:39.351Z,58.42
2023-05-01T18:38:30.400Z,58.76
2023-05-01T18:41:21.611Z,58.76
2023-05-01T18:44:12.139Z,58.85
2023-05-01T18:47:02.626Z,59.09
2023-05-01T18:49:53.339Z,59.31
2023-05-01T18:52:44.085Z,59.79
2023-05-01T18:55:37.178Z,60.01
2023-05-01T18:58:27.955Z,60.23
2023-05-01T19:01:20.894Z,60.61
2023-05-01T19:04:11.843Z,60.82
2023-05-01T19:07:03.193Z,61.29
2023-05-01T19:09:53.921Z,61.65
2023-05-01T19:12:44.745Z,62.00
2023-05-01T19:15:35.939Z,62.30
2023-05-01T19:18:26.520Z,62.37
2023-05-01T19:21:17.113Z,62.67
2023-05-01T19:24:08.717Z,62.98
2023-05-01T19:26:59.530Z,63.38
2023-05-01T19:29:50.852Z,63.43
2023-05-01T19:32:41.556Z,63.61
2023-05-01T19:35:32.165Z,63.95
2023-05-01T19:38:23.053Z,64.22
2023-05-01T19:41:13.739Z,64.69
2023-05-01T19:44:04.755Z,65.06
2023-05-01T19:46:55.687Z,65.04
2023-05-01T19:49:46.376Z,65.00
2023-05-01T19:52:37.118Z,65.64
2023-05-01T19:55:27.681Z,66.18
2023-05-01T19:58:18.853Z,66.11
2023-05-01T20:01:11.968Z,66.41
2023-05-01T20:04:02.762Z,66.50
2023-05-01T20:06:53.567Z,66.96
2023-05-01T20:09:47.636Z,67.32
2023-05-01T20:12:38.402Z,67.54
2023-05-01T20:15:29.939Z,67.78
2023-05-01T20:18:20.906Z,67.96
2023-05-01T20:21:11.499Z,68.20
2023-05-01T20:24:02.130Z,68.40
2023-05-01T20:26:54.189Z,68.63
2023-05-01T20:29:44.517Z,68.58
2023-05-01T20:32:42.507Z,68.73
2023-05-01T20:35:35.249Z,68.88
2023-05-01T20:38:25.799Z,68.85
2023-05-01T20:41:16.870Z,68.94
2023-05-01T20:44:09.129Z,69.18
2023-05-01T20:47:00.028Z,69.29
2023-05-01T20:49:50.719Z,69.40
2023-05-01T20:52:42.524Z,69.77
2023-05-01T20:55:33.309Z,69.94
2023-05-01T20:58:23.847Z,70.05
2023-05-01T21:01:14.479Z,70.29
2023-05-01T21:04:06.587Z,70.50
2023-05-01T21:06:58.629Z,70.92
2023-05-01T21:09:51.420Z,71.14
2023-05-01T21:12:45.021Z,71.32
2023-05-01T21:15:35.853Z,71.37
2023-05-01T21:18:28.855Z,71.51
2023-05-01T21:21:21.630Z,71.68
2023-05-01T21:24:17.867Z,71.92
2023-05-01T21:27:08.978Z,72.07
2023-05-01T21:30:03.211Z,72.20
2023-05-01T21:32:56.552Z,72.31
2023-05-01T21:35:47.914Z,72.67
2023-05-01T21:38:38.693Z,72.74
2023-05-01T21:41:29.667Z,73.05
2023-05-01T21:44:23.863Z,73.47
2023-05-01T21:47:17.336Z,73.54
2023-05-01T21:50:09.351Z,73.65
2023-05-01T21:53:02.644Z,73.75
2023-05-01T21:55:53.308Z,73.64
2023-05-01T21:58:44.225Z,73.81
2023-05-01T22:01:35.285Z,73.83
2023-05-01T22:04:26.193Z,73.83
2023-05-01T22:07:19.175Z,73.70
2023-05-01T22:10:13.168Z,73.71
2023-05-01T22:13:05.898Z,73.82
2023-05-01T22:15:56.631Z,73.59
2023-05-01T22:18:51.880Z,73.68
2023-05-01T22:21:42.954Z,73.93
2023-05-01T22:24:35.274Z,73.88
2023-05-01T22:27:31.683Z,73.74
2023-05-01T22:30:24.628Z,73.92
2023-05-01T22:33:15.343Z,74.26
2023-05-01T22:36:07.766Z,74.26
2023-05-01T22:38:59.334Z,74.35
2023-05-01T22:41:52.405Z,74.58
2023-05-01T22:44:45.828Z,74.66
2023-05-01T22:47:41.842Z,74.68
2023-05-01T22:50:35.491Z,74.83
2023-05-01T22:53:31.324Z,74.86
2023-05-01T22:56:22.356Z,74.86
2023-05-01T22:59:13.329Z,74.84
2023-05-01T23:02:06.968Z,75.05
2023-05-01T23:05:00.730Z,74.96
2023-05-01T23:07:56.193Z,75.06
2023-05-01T23:10:49.165Z,75.03
2023-05-01T23:13:48.383Z,75.26
2023-05-01T23:16:41.751Z,75.43
2023-05-01T23:19:36.042Z,75.48
2023-05-01T23:22:31.009Z,75.68
2023-05-01T23:25:25.664Z,75.70
2023-05-01T23:28:41.110Z,75.88
2023-05-01T23:31:31.758Z,76.06
2023-05-01T23:34:26.323Z,75.93
2023-05-01T23:37:17.244Z,75.62
2023-05-01T23:40:15.357Z,75.89
2023-05-01T23:43:12.421Z,76.24
2023-05-01T23:46:06.811Z,75.91
2023-05-01T23:48:58.003Z,75.85
2023-05-01T23:51:56.731Z,75.96
2023-05-01T23:54:49.808Z,75.83
2023-05-01T23:57:42.683Z,75.83
